Whale Point, California Weather observations

Data are for observation ending at time listed.
 Day   Time    Ave.   Ave.  Ave.  Vector   Max.   Stn.    Total    Solar   Ave.  
  of    of     Air    Rel.  Wind   Wind    Wind   Baro.  Precip.   Rad.    Soil  
Year   Day     Temp.  Hum.  Speed  Dir.    Gust   Pres.                    Temp. 
2016   (PST)    F      %     mph   deg.    mph     mb.     in.     W/m2     F   
------------------------------------------------------------------------------
 344   15:40   56.6    96    1.1   182      5.0   1001.7    0.00      69    58.4
 344   15:50   57.2    96    0.8   200      2.5   1001.4    0.00      96    58.4
 344   16:00   57.3    96    0.9   264      2.9   1001.4    0.00      55    58.5
 344   16:10   56.7    96    2.9    10      5.0   1001.4    0.00      33    58.5
 344   16:20   56.6    96    3.3    22      7.2   1001.0    0.00      42    58.5
 344   16:30   56.9    96    2.2   217      5.6   1000.7    0.00      41    58.6
 344   16:40   56.6    96    1.6   186      3.1   1000.7    0.00      20    58.6
 344   16:50   56.6    96    2.5   190      4.4   1001.0    0.00       5    58.7
 344   17:00   56.5    96    2.5   197      5.2   1001.0    0.00       2    58.7
 344   17:10   56.2    96    0.7   155      2.2   1001.0    0.00       0    58.7
 344   17:20   56.1    96    0.1   302      0.9   1001.0    0.00       0    58.7
 344   17:30   56.0    96    2.1    26      4.5   1001.0    0.00       0    58.7
 344   17:40   56.2    96    2.1    58      5.0   1001.0    0.00       0    58.8
 344   17:50   56.0    96    0.6   133      2.2   1001.0    0.00       0    58.8
 344   18:00   56.2    96    2.5    43      6.5   1001.0    0.00       0    58.8
 344   18:10   56.3    96    0.7    57      2.6   1001.4    0.00       0    58.8
 344   18:20   56.2    96    2.7   354      5.9   1001.4    0.00       0    58.8
 344   18:30   56.3    96    3.3    17      5.3   1001.4    0.00       0    58.8
 344   18:40   56.4    96    3.0    35      5.5   1001.4    0.00       0    58.8
 344   18:50   56.7    96    3.4    44      4.8   1001.0    0.00       0    58.8
 344   19:00   57.0    96    3.6    63      6.1   1001.0    0.00       0    58.8
 344   19:10   57.3    95    1.0   125      3.9   1001.4    0.00       0    58.8
 344   19:20   56.8    95    1.3   183      3.7   1001.4    0.00       0    58.7
 344   19:30   56.5    95    0.8    11      2.2   1001.4    0.00       0    58.7
 344   19:40   56.6    95    4.0    42      6.5   1001.4    0.00       0    58.7
 344   19:50   56.9    95    3.4    74      5.7   1001.4    0.00       0    58.7
 344   20:00   57.2    95    2.0    69      3.8   1001.0    0.00       0    58.7
 344   20:10   57.4    94    1.8    82      3.9   1001.0    0.00       0    58.7
 344   20:20   57.4    94    0.6    78      2.5   1001.0    0.00       0    58.7
 344   20:30   57.3    94    0.0     0      0.0   1001.0    0.00       0    58.6
 344   20:40   57.2    94    1.8    49      4.0   1001.0    0.00       0    58.6
 344   20:50   57.2    93    1.1   142      3.0   1001.4    0.00       0    58.6
 344   21:00   57.0    93    1.0   196      2.7   1001.4    0.00       0    58.6
 344   21:10   56.3    94    0.7   205      1.8   1001.4    0.00       0    58.6
 344   21:20   56.1    94    2.0    26      4.4   1001.7    0.00       0    58.6
 344   21:30   56.4    95    3.1    26      4.5   1001.7    0.01       0    58.5
 344   21:40   56.8    95    3.6    33      5.0   1001.7    0.00       0    58.5
 344   21:50   57.1    95    3.2    59      4.5   1001.7    0.00       0    58.5
 344   22:00   57.3    94    4.9    67      7.9   1001.4    0.00       0    58.5
 344   22:10   57.5    94    4.4    69      7.3   1001.4    0.00       0    58.5
 344   22:20   57.4    93    2.7   182      5.8   1001.7    0.00       0    58.5
 344   22:30   57.2    94    2.4   144      4.7   1001.7    0.00       0    58.4
 344   22:40   57.1    94    0.2   253      0.9   1001.7    0.00       0    58.4
 344   22:50   56.9    94    0.6    21      2.4   1001.7    0.00       0    58.4
 344   23:00   57.1    94    5.6    42      7.9   1001.7    0.00       0    58.4
 344   23:10   57.4    94    5.2    61      7.2   1001.4    0.00       0    58.4
 344   23:20   57.8    94    2.5    81      5.2   1001.4    0.00       0    58.4
 344   23:30   57.8    93    1.0   185      2.3   1001.4    0.00       0    58.4
 344   23:40   57.1    94    0.7   186      1.7   1001.7    0.01       0    58.4
 344   23:50   57.0    94    0.6   198      2.0   1001.4    0.00       0    58.4
 345    0:00   57.1    94    1.6    40      2.0   1001.4    0.01       0    58.4
 345    0:10   57.4    95    0.8    54      2.0   1001.4    0.01       0    58.3
 345    0:20   57.8    95    0.8   141      1.9   1001.4    0.00       0    58.3
 345    0:30   57.4    94    0.1   172      0.7   1001.4    0.01       0    58.3
 345    0:40   57.5    95    0.9    48      1.6   1001.0    0.00       0    58.3
 345    0:50   58.1    95    0.8    52      1.7   1001.4    0.00       0    58.3
 345    1:00   58.2    95    1.0    69      2.6   1001.4    0.01       0    58.3
 345    1:10   58.1    95    0.0   198      0.4   1001.0    0.01       0    58.3
 345    1:20   58.2    95    0.0     0      0.0   1001.0    0.00       0    58.3
 345    1:30   58.1    95    0.4    72      1.5   1001.4    0.01       0    58.3
 345    1:40   58.1    95    0.3   199      1.2   1001.4    0.01       0    58.2
 345    1:50   57.5    95    1.6   205      3.9   1001.4    0.01       0    58.2
 345    2:00   57.0    95    1.4   138      2.4   1001.4    0.01       0    58.2
 345    2:10   57.1    95    0.9    35      2.1   1001.4    0.01       0    58.2
 345    2:20   56.8    95    1.3     4      2.6   1001.4    0.01       0    58.2
 345    2:30   56.6    95    1.1   197      2.2   1001.4    0.01       0    58.2
 345    2:40   56.4    95    0.5   115      1.3   1001.4    0.01       0    58.2
 345    2:50   56.8    96    0.5   146      2.4   1001.0    0.00       0    58.2
 345    3:00   56.6    96    0.2    12      0.7   1001.0    0.01       0    58.2
 345    3:10   56.6    96    0.3    13      1.2   1001.0    0.01       0    58.2
 345    3:20   56.6    96    1.0    12      1.6   1000.7    0.01       0    58.2
 345    3:30   56.6    96    0.0    10      0.7   1000.7    0.01       0    58.2
 345    3:40   56.6    96    0.2   248      1.5   1000.7    0.01       0    58.2
 345    3:50   56.5    96    1.3    40      4.2   1000.7    0.01       0    58.2
 345    4:00   56.9    96    2.2    60      4.6   1000.7    0.02       0    58.2
 345    4:10   56.8    96    0.7   199      2.4   1000.7    0.00       0    58.2
 345    4:20   56.3    96    0.5    84      1.9   1000.7    0.01       0    58.2
 345    4:30   56.4    96    0.4   191      1.6   1000.7    0.01       0    58.2
 345    4:40   56.3    96    0.2   193      1.4   1000.7    0.01       0    58.2
 345    4:50   56.2    96    0.0     0      0.0   1000.7    0.00       0    58.2
 345    5:00   56.2    96    0.1   353      0.8   1000.7    0.00       0    58.2
 345    5:10   56.1    96    0.2   349      1.2   1000.7    0.01       0    58.2
 345    5:20   56.2    96    0.2   282      1.8   1000.7    0.01       0    58.2
 345    5:30   56.2    96    0.7    47      2.6   1000.7    0.01       0    58.2
 345    5:40   56.4    96    1.7    19      3.7   1000.3    0.01       0    58.2
 345    5:50   56.2    96    0.6   329      1.8   1000.7    0.00       0    58.2
 345    6:00   56.2    96    0.4   298      1.4   1000.7    0.01       0    58.2
 345    6:10   56.1    96    0.8   216      2.2   1000.7    0.00       0    58.2
 345    6:20   56.0    96    0.0     0      0.0   1000.7    0.02       0    58.2
 345    6:30   56.0    96    1.3     9      2.0   1000.7    0.00       0    58.2
 345    6:40   56.0    96    1.7    12      3.3   1000.7    0.01       0    58.1
 345    6:50   56.0    96    0.3    86      1.8   1000.7    0.00       0    58.1
 345    7:00   56.3    96    0.1    95      0.7   1001.0    0.01       0    58.1
 345    7:10   56.4    96    0.1   141      0.9   1000.7    0.00       1    58.1
 345    7:20   56.4    96    0.0     0      0.0   1000.7    0.00       3    58.1
 345    7:30   56.5    96    1.1   191      2.2   1000.7    0.00       6    58.1
 345    7:40   56.4    96    1.0   216      1.5   1000.7    0.00      13    58.1
 345    7:50   56.2    96    0.8   203      1.4   1000.7    0.00      20    58.1
 345    8:00   56.2    96    1.0   210      2.6   1000.7    0.00      27    58.1
 345    8:10   56.1    96    0.5   219      1.6   1000.7    0.01      37    58.1
 345    8:20   55.9    96    1.3   207      2.3   1001.0    0.00      28    58.1
 345    8:30   55.9    96    0.6   222      1.8   1001.0    0.01      38    58.1
 345    8:40   55.9    96    0.3   236      1.3   1001.0    0.00      50    58.1
 345    8:50   56.1    96    0.5   229      1.2   1001.0    0.00      66    58.1
 345    9:00   56.5    96    3.1    59      6.4   1001.0    0.00     127    58.1
 345    9:10   56.8    96    5.3    28      7.9   1001.4    0.00     156    58.1
 345    9:20   57.6    96    3.5    51      7.3   1001.0    0.00     353    58.1
 345    9:30   57.0    96    5.2   203     10.7   1001.0    0.00     150    58.1
 345    9:40   55.9    96    7.1   199     11.0   1001.4    0.00     101    58.1
 345    9:50   55.8    96    5.2   211      9.6   1001.4    0.00      89    58.1
 345   10:00   56.0    96    2.7   202      5.7   1001.4    0.00      80    58.1
 345   10:10   56.2    96    2.2   228      4.9   1001.4    0.01     128    58.1
 345   10:20   56.4    96    1.5   208      3.6   1001.4    0.01     117    58.1
 345   10:30   56.7    96    1.2   233      3.8   1001.4    0.01     133    58.2
 345   10:40   56.9    96    2.3   224      4.1   1001.7    0.01     134    58.2
 345   10:50   57.0    96    2.2   199      3.1   1001.7    0.02     133    58.2
 345   11:00   57.4    96    1.3   198      3.0   1001.4    0.00     192    58.2
 345   11:10   57.5    96    2.4   230      3.7   1001.0    0.00     206    58.3
 345   11:20   57.3    96    2.8   211      5.0   1001.0    0.00     136    58.3
 345   11:30   56.8    96    3.4   215      4.8   1001.0    0.01     108    58.3
 345   11:40   56.8    96    2.4   205      4.6   1001.0    0.01     116    58.4
 345   11:50   57.1    96    1.4   174      2.9   1000.7    0.01     158    58.4
 345   12:00   57.3    96    1.8   202      3.7   1000.3    0.01     131    58.5
 345   12:10   57.1    96    1.9   210      3.7   1000.3    0.01     138    58.5
 345   12:20   57.4    96    2.0   186      3.8   1000.0    0.01     138    58.5
 345   12:30   57.8    96    2.3   193      3.6   1000.0    0.00     190    58.6
 345   12:40   57.6    96    2.1   217      3.4   999.7    0.00     218    58.7
 345   12:50   57.9    96    2.5   203      3.8   999.3    0.01     244    58.7
 345   13:00   57.8    96    2.3   207      3.9   999.3    0.00     186    58.8
 345   13:10   57.5    96    3.0   218      4.1   999.3    0.01     140    58.8
 345   13:20   57.3    96    2.5   210      4.0   999.3    0.01     126    58.9
 345   13:30   57.0    96    2.3   220      3.4   999.3    0.00     153    58.9
 345   13:40   57.2    96    2.0   204      3.1   999.0    0.01     126    59.0
 345   13:50   57.1    96    1.4   197      2.9   999.0    0.02      91    59.1
 345   14:00   57.1    96    1.1   207      2.2   999.0    0.00     116    59.1
 345   14:10   57.3    96    0.1   270      1.1   999.0    0.02     125    59.2
 345   14:20   57.9    96    0.4   226      1.8   998.6    0.01     139    59.3
 345   14:30   57.3    96    1.1   220      2.1   998.6    0.01     116    59.3
 345   14:40   57.6    96    1.3   199      3.3   998.6    0.00     139    59.4
 345   14:50   57.3    96    1.5   203      3.1   998.6    0.00      83    59.5
 345   15:00   57.0    96    0.5    93      1.7   998.3    0.00      99    59.5
 345   15:10   57.6    96    0.1   328      1.0   998.3    0.00     123    59.6
 345   15:20   57.6    96    0.9   227      1.7   998.6    0.00      49    59.6
 345   15:30   57.1    96    0.6   215      1.3   998.6    0.00      19    59.7

Return to Whale Point graphs page.


Western Regional Climate Center,wrcc@dri.edu